Morristown, NJ (07960)

12:25 EST le 26 février 2017 (GMT -0500)
Wheatsheaf | | Change Station

Alt. 406 ft 40.81 °N, 74.50 °W | Updated 14 minutes ago

Nuageux
Nuageux
37.6 ° F
Paraît 34 ° F
N
5.0
Vent Variable Vent de ONO
Gusts 9.0 mph

Aujourd'hui
Haut(e) -- | Bas -- ° F
--% Risque de précip.
Hier
Haut(e) -- | Bas -- ° F
Precip. -- pouce
Pression 30.04 pouce
Visibilité 10.0 Miles terrestres
Nuages Nuageux 5000 ft
Refroidissement éolien 34 ° F
Point de rosée 18 ° F
Humidité 46%
Précipitations 0.00 pouce
Profondeur de la couche neigeuse Non disponible.
6:36 AM 5:46 PM
Nouvelle lune, 0% visible
METAR KMMU 261645Z 31006G23KT 10SM BKN050 04/M08 A3004
Pression 30.04 pouce
Visibilité 10.0 Miles terrestres
Nuages Nuageux 5000 ft
Refroidissement éolien 34 ° F
Point de rosée 18 ° F
Humidité 46%
Précipitations 0.00 pouce
Profondeur de la couche neigeuse Non disponible.
6:36 AM 5:46 PM
Nouvelle lune, 0% visible
METAR KMMU 261645Z 31006G23KT 10SM BKN050 04/M08 A3004

Get Your Daily Forecast Email!

Thanks for signing up!

Be on the lookout for a verification email in your inbox.

You'll start receiving the daily forecast at 8 AM.

×

10-Day Weather Forecast

Almanac

Astronomie

Feb. 26, 2017 Lever Coucher
Temps réel
Crépuscule civil
Crépuscule nautique
Crépuscule astronomique
Lune
Durée de lumière visible
Longueur du jour
Tomorrow will be .
, % of the Moon is Illuminated

Extrêmes aujourd'hui

State Highs State Lows

Community

WunderPhotos

Upload Photos

1,962,540 Photos téléchargées !

WunderBlog® & News

Nearby

Qualité de l'air

  Qualité de l'air Indice de la qualité de l'air Polluant
Not available.

Épaisseur de neige

Station Depth Altitude

Activité sismique

Ville Distance Mag. Time & Date
Minimum magnitude displayed is 2.5.

Températures des eaux côtières

Lieu Température

Stations

Stations météo à proximité

Emplacement de la station Température Refroidissement éolien Point de rosée Humidité Vent Precip. Alt. Mise à jour Type
                   

Watches & Warnings

There are currently no watches in effect.